Aérodrome :
LOGIN :

S'inscrire | Disclaimer

   EN    FR    IT 

 










Légende :    VFR   VFR Marginal   IFR   IFR Intensif   IFR Très Intensif
Visi : 
Plafond : 
>= 8 km
>= 3000ft
5 à 8 km
1000 à 3000 ft
1500m à 5 km
500 à 1000 ft
800 à 1500m
200 à 500 ft
< 800m
< 200 ft
Symboles :   Orages  Brouillard  Fortes neiges  Fortes précipitations  Vent > 20 kt
SIGMETs :   Divers  Orages  Givrage  Turbulence  Onde Orograph.  Cendres Volcan.







- Altitude de l'aérodrome : 162 ft
- Code IATA : BOD
- Voir les cartes d'approche


LFBD - Bordeaux / Merignac

DERNIER METAR :
  • 200330Z AUTO 12002KT 3100 1400 R23/P2300 R05/P2300 R29/2100N BR NSC 02/01 Q1025 TEMPO 0300 FG VV///

METARs EXPIRÉS :
  • 200300Z AUTO 12001KT 4600 R29/1400U BR FEW001 02/01 Q1025 TEMPO 0300 FG VV///
  • 200230Z AUTO 00000KT 4900 2300 BR NSC 02/01 Q1025 TEMPO 0300 FG VV///
  • 200200Z AUTO 10001KT 4400 BR NSC 02/02 Q1025 TEMPO 0300 FG VV///
  • 200130Z AUTO 00000KT 4900 2200 BR NSC 02/01 Q1026 TEMPO 0300 FG VV///
  • 200100Z AUTO 00000KT 4100 BR NSC 02/02 Q1026 TEMPO 0300 FG VV///

TAF TAF LFBD
Valide du 20 à 00h jusqu'au 21 à 06h UTC


192300Z 2000/2106 VRB02KT 4000 BR NSC
TEMPO 2000/2009 0300 FG VV///
BECMG 2009/2011 CAVOK
BECMG 2019/2021 4000 BR
TEMPO 2100/2106 0300 FG VV/// TX13/2015Z TN03/2006Z
ATIS : +33 5 57 92 81 04
Pas de NOTAMs connus pour ce terrain.



MET'MAP, la Météo Aéronautique d'un coup d'oeil ! - Copyright ORBIFLY Décembre 2007 - Disclaimer

ORBIFLY MET'MAP TEAM :

Programmation & Développement : Alexandra Zaïnal
Conception & Développement : Baudouin d'Aumeries
Co-Programmation & Développement : Marc-Olivier Méhu
Soutien technique & logistique : Manuel Goepfert

Contact : metmap@orbifly.com




SOURCES & CREDITS :

   NOAA